sensor_id;sensor_type;location;lat;lon;timestamp;P1;durP1;ratioP1;P2;durP2;ratioP2
18822;SDS011;9540;51.550;7.980;2023-03-01T00:00:07;26.67;;;14.13;;
18822;SDS011;9540;51.550;7.980;2023-03-01T00:02:35;27.37;;;14.37;;
18822;SDS011;9540;51.550;7.980;2023-03-01T00:05:03;26.73;;;13.03;;
18822;SDS011;9540;51.550;7.980;2023-03-01T00:07:32;22.00;;;12.43;;
18822;SDS011;9540;51.550;7.980;2023-03-01T00:10:01;25.27;;;13.63;;
18822;SDS011;9540;51.550;7.980;2023-03-01T00:12:28;23.37;;;13.27;;
18822;SDS011;9540;51.550;7.980;2023-03-01T00:14:59;26.07;;;12.13;;
18822;SDS011;9540;51.550;7.980;2023-03-01T00:17:27;31.23;;;14.90;;
18822;SDS011;9540;51.550;7.980;2023-03-01T00:19:54;24.63;;;13.20;;
18822;SDS011;9540;51.550;7.980;2023-03-01T00:22:22;22.60;;;12.30;;
18822;SDS011;9540;51.550;7.980;2023-03-01T00:24:49;25.30;;;13.73;;
18822;SDS011;9540;51.550;7.980;2023-03-01T00:27:17;23.73;;;12.80;;
18822;SDS011;9540;51.550;7.980;2023-03-01T00:29:45;22.43;;;12.03;;
18822;SDS011;9540;51.550;7.980;2023-03-01T00:32:12;25.07;;;13.00;;
18822;SDS011;9540;51.550;7.980;2023-03-01T00:34:39;20.53;;;12.40;;
18822;SDS011;9540;51.550;7.980;2023-03-01T00:37:15;19.50;;;11.63;;
18822;SDS011;9540;51.550;7.980;2023-03-01T00:39:43;23.03;;;12.93;;
18822;SDS011;9540;51.550;7.980;2023-03-01T00:42:10;24.93;;;12.63;;
18822;SDS011;9540;51.550;7.980;2023-03-01T00:44:39;24.33;;;12.87;;
18822;SDS011;9540;51.550;7.980;2023-03-01T00:47:06;27.40;;;12.40;;
18822;SDS011;9540;51.550;7.980;2023-03-01T00:49:34;21.17;;;12.67;;
18822;SDS011;9540;51.550;7.980;2023-03-01T00:52:01;20.43;;;11.60;;
18822;SDS011;9540;51.550;7.980;2023-03-01T00:54:28;18.83;;;11.00;;
18822;SDS011;9540;51.550;7.980;2023-03-01T00:56:55;21.53;;;12.07;;
18822;SDS011;9540;51.550;7.980;2023-03-01T00:59:22;25.57;;;12.67;;
18822;SDS011;9540;51.550;7.980;2023-03-01T01:02:02;26.20;;;12.40;;
18822;SDS011;9540;51.550;7.980;2023-03-01T01:04:29;21.30;;;11.17;;
18822;SDS011;9540;51.550;7.980;2023-03-01T01:06:56;24.53;;;12.10;;
18822;SDS011;9540;51.550;7.980;2023-03-01T01:09:23;21.00;;;11.77;;
18822;SDS011;9540;51.550;7.980;2023-03-01T01:11:50;21.27;;;12.27;;
18822;SDS011;9540;51.550;7.980;2023-03-01T01:14:17;23.73;;;11.40;;
18822;SDS011;9540;51.550;7.980;2023-03-01T01:16:45;24.63;;;12.30;;
18822;SDS011;9540;51.550;7.980;2023-03-01T01:19:13;26.90;;;11.67;;
18822;SDS011;9540;51.550;7.980;2023-03-01T01:21:44;21.37;;;10.93;;
18822;SDS011;9540;51.550;7.980;2023-03-01T01:24:11;20.87;;;10.40;;
18822;SDS011;9540;51.550;7.980;2023-03-01T01:26:39;18.47;;;11.47;;
18822;SDS011;9540;51.550;7.980;2023-03-01T01:29:06;26.20;;;12.13;;
18822;SDS011;9540;51.550;7.980;2023-03-01T01:31:34;21.67;;;11.17;;
18822;SDS011;9540;51.550;7.980;2023-03-01T01:34:03;20.10;;;10.73;;
18822;SDS011;9540;51.550;7.980;2023-03-01T01:36:33;21.80;;;11.13;;
18822;SDS011;9540;51.550;7.980;2023-03-01T01:39:02;22.70;;;10.73;;
18822;SDS011;9540;51.550;7.980;2023-03-01T01:41:29;23.37;;;11.30;;
18822;SDS011;9540;51.550;7.980;2023-03-01T01:44:13;22.33;;;10.87;;
18822;SDS011;9540;51.550;7.980;2023-03-01T01:46:43;20.57;;;10.63;;
18822;SDS011;9540;51.550;7.980;2023-03-01T01:49:17;24.13;;;12.63;;
18822;SDS011;9540;51.550;7.980;2023-03-01T01:51:53;19.50;;;10.13;;
18822;SDS011;9540;51.550;7.980;2023-03-01T01:54:24;22.87;;;11.83;;
18822;SDS011;9540;51.550;7.980;2023-03-01T01:56:55;20.17;;;11.73;;
18822;SDS011;9540;51.550;7.980;2023-03-01T01:59:26;23.37;;;11.43;;
18822;SDS011;9540;51.550;7.980;2023-03-01T02:01:56;24.17;;;11.93;;
18822;SDS011;9540;51.550;7.980;2023-03-01T02:04:26;21.60;;;10.73;;
18822;SDS011;9540;51.550;7.980;2023-03-01T02:06:58;21.50;;;11.27;;
18822;SDS011;9540;51.550;7.980;2023-03-01T02:09:28;18.73;;;10.77;;
18822;SDS011;9540;51.550;7.980;2023-03-01T02:11:56;22.23;;;11.37;;
18822;SDS011;9540;51.550;7.980;2023-03-01T02:14:24;22.47;;;12.90;;
18822;SDS011;9540;51.550;7.980;2023-03-01T02:16:51;26.73;;;13.50;;
18822;SDS011;9540;51.550;7.980;2023-03-01T02:19:21;24.33;;;11.70;;
18822;SDS011;9540;51.550;7.980;2023-03-01T02:22:00;22.13;;;11.63;;
18822;SDS011;9540;51.550;7.980;2023-03-01T02:24:35;23.77;;;11.90;;
18822;SDS011;9540;51.550;7.980;2023-03-01T02:27:12;25.17;;;11.80;;
18822;SDS011;9540;51.550;7.980;2023-03-01T02:29:40;21.10;;;11.53;;
18822;SDS011;9540;51.550;7.980;2023-03-01T02:32:09;18.67;;;10.53;;
18822;SDS011;9540;51.550;7.980;2023-03-01T02:34:37;22.83;;;11.90;;
18822;SDS011;9540;51.550;7.980;2023-03-01T02:37:07;20.47;;;11.03;;
18822;SDS011;9540;51.550;7.980;2023-03-01T02:39:38;22.00;;;12.07;;
18822;SDS011;9540;51.550;7.980;2023-03-01T02:42:10;21.73;;;10.63;;
18822;SDS011;9540;51.550;7.980;2023-03-01T02:44:40;21.37;;;11.00;;
18822;SDS011;9540;51.550;7.980;2023-03-01T02:47:07;23.97;;;12.23;;
18822;SDS011;9540;51.550;7.980;2023-03-01T02:49:35;25.33;;;12.10;;
18822;SDS011;9540;51.550;7.980;2023-03-01T02:55:04;18.07;;;10.27;;
18822;SDS011;9540;51.550;7.980;2023-03-01T02:57:35;29.80;;;13.83;;
18822;SDS011;9540;51.550;7.980;2023-03-01T03:00:08;25.23;;;12.73;;
18822;SDS011;9540;51.550;7.980;2023-03-01T03:02:44;24.20;;;12.60;;
18822;SDS011;9540;51.550;7.980;2023-03-01T03:05:12;21.20;;;12.17;;
18822;SDS011;9540;51.550;7.980;2023-03-01T03:07:42;19.43;;;11.07;;
18822;SDS011;9540;51.550;7.980;2023-03-01T03:10:11;22.27;;;12.17;;
18822;SDS011;9540;51.550;7.980;2023-03-01T03:12:40;22.57;;;11.93;;
18822;SDS011;9540;51.550;7.980;2023-03-01T03:15:09;26.90;;;12.13;;
18822;SDS011;9540;51.550;7.980;2023-03-01T03:17:38;25.27;;;12.33;;
18822;SDS011;9540;51.550;7.980;2023-03-01T03:20:07;21.57;;;12.20;;
18822;SDS011;9540;51.550;7.980;2023-03-01T03:22:37;21.80;;;11.83;;
18822;SDS011;9540;51.550;7.980;2023-03-01T03:25:05;26.73;;;13.00;;
18822;SDS011;9540;51.550;7.980;2023-03-01T03:27:35;22.07;;;11.50;;
18822;SDS011;9540;51.550;7.980;2023-03-01T03:30:03;28.97;;;12.87;;
18822;SDS011;9540;51.550;7.980;2023-03-01T03:32:35;27.90;;;14.00;;
18822;SDS011;9540;51.550;7.980;2023-03-01T03:35:03;25.07;;;12.93;;
18822;SDS011;9540;51.550;7.980;2023-03-01T03:37:34;23.70;;;12.37;;
18822;SDS011;9540;51.550;7.980;2023-03-01T03:40:19;24.83;;;11.90;;
18822;SDS011;9540;51.550;7.980;2023-03-01T03:42:47;29.73;;;13.30;;
18822;SDS011;9540;51.550;7.980;2023-03-01T03:45:14;28.63;;;12.50;;
18822;SDS011;9540;51.550;7.980;2023-03-01T03:47:43;24.00;;;12.97;;
18822;SDS011;9540;51.550;7.980;2023-03-01T03:50:11;27.43;;;13.60;;
18822;SDS011;9540;51.550;7.980;2023-03-01T03:52:39;23.27;;;12.80;;
18822;SDS011;9540;51.550;7.980;2023-03-01T03:55:07;30.63;;;13.17;;
18822;SDS011;9540;51.550;7.980;2023-03-01T03:57:37;28.03;;;12.37;;
18822;SDS011;9540;51.550;7.980;2023-03-01T04:00:06;23.50;;;12.23;;
18822;SDS011;9540;51.550;7.980;2023-03-01T04:02:38;23.33;;;12.60;;
18822;SDS011;9540;51.550;7.980;2023-03-01T04:05:07;22.97;;;11.90;;
18822;SDS011;9540;51.550;7.980;2023-03-01T04:07:36;22.03;;;11.00;;
18822;SDS011;9540;51.550;7.980;2023-03-01T04:10:04;23.43;;;11.40;;
18822;SDS011;9540;51.550;7.980;2023-03-01T04:12:34;26.50;;;11.87;;
18822;SDS011;9540;51.550;7.980;2023-03-01T04:15:03;23.90;;;12.33;;
18822;SDS011;9540;51.550;7.980;2023-03-01T04:17:38;23.83;;;11.57;;
18822;SDS011;9540;51.550;7.980;2023-03-01T04:20:08;25.63;;;12.50;;
18822;SDS011;9540;51.550;7.980;2023-03-01T04:22:36;22.13;;;11.50;;
18822;SDS011;9540;51.550;7.980;2023-03-01T04:25:04;24.23;;;12.53;;
18822;SDS011;9540;51.550;7.980;2023-03-01T04:27:32;25.43;;;12.33;;
18822;SDS011;9540;51.550;7.980;2023-03-01T04:30:00;22.03;;;11.47;;
18822;SDS011;9540;51.550;7.980;2023-03-01T04:32:27;25.63;;;11.93;;
18822;SDS011;9540;51.550;7.980;2023-03-01T04:34:54;27.13;;;12.83;;
18822;SDS011;9540;51.550;7.980;2023-03-01T04:37:23;25.27;;;12.47;;
18822;SDS011;9540;51.550;7.980;2023-03-01T04:39:50;28.40;;;13.03;;
18822;SDS011;9540;51.550;7.980;2023-03-01T04:42:17;28.67;;;13.93;;
18822;SDS011;9540;51.550;7.980;2023-03-01T04:44:45;31.00;;;14.13;;
18822;SDS011;9540;51.550;7.980;2023-03-01T04:47:12;32.80;;;12.83;;
18822;SDS011;9540;51.550;7.980;2023-03-01T04:49:39;27.63;;;13.80;;
18822;SDS011;9540;51.550;7.980;2023-03-01T04:52:07;27.43;;;12.90;;
18822;SDS011;9540;51.550;7.980;2023-03-01T04:54:35;26.63;;;12.30;;
18822;SDS011;9540;51.550;7.980;2023-03-01T04:57:03;31.63;;;13.53;;
18822;SDS011;9540;51.550;7.980;2023-03-01T04:59:30;22.70;;;11.77;;
18822;SDS011;9540;51.550;7.980;2023-03-01T05:01:57;27.77;;;12.67;;
18822;SDS011;9540;51.550;7.980;2023-03-01T05:04:25;26.53;;;12.87;;
18822;SDS011;9540;51.550;7.980;2023-03-01T05:06:52;26.57;;;12.60;;
18822;SDS011;9540;51.550;7.980;2023-03-01T05:09:19;27.73;;;13.17;;
18822;SDS011;9540;51.550;7.980;2023-03-01T05:11:48;28.53;;;13.40;;
18822;SDS011;9540;51.550;7.980;2023-03-01T05:14:16;25.60;;;12.73;;
18822;SDS011;9540;51.550;7.980;2023-03-01T05:16:43;29.37;;;13.40;;
18822;SDS011;9540;51.550;7.980;2023-03-01T05:19:10;28.33;;;13.17;;
18822;SDS011;9540;51.550;7.980;2023-03-01T05:21:40;24.97;;;13.13;;
18822;SDS011;9540;51.550;7.980;2023-03-01T05:24:22;26.80;;;12.43;;
18822;SDS011;9540;51.550;7.980;2023-03-01T05:26:50;31.00;;;12.60;;
18822;SDS011;9540;51.550;7.980;2023-03-01T05:29:18;30.77;;;14.30;;
18822;SDS011;9540;51.550;7.980;2023-03-01T05:31:50;26.87;;;13.27;;
18822;SDS011;9540;51.550;7.980;2023-03-01T05:34:18;29.23;;;12.73;;
18822;SDS011;9540;51.550;7.980;2023-03-01T05:36:48;29.57;;;13.53;;
18822;SDS011;9540;51.550;7.980;2023-03-01T05:39:18;23.60;;;12.20;;
18822;SDS011;9540;51.550;7.980;2023-03-01T05:41:47;27.93;;;13.07;;
18822;SDS011;9540;51.550;7.980;2023-03-01T05:44:16;28.33;;;13.70;;
18822;SDS011;9540;51.550;7.980;2023-03-01T05:46:44;26.03;;;13.47;;
18822;SDS011;9540;51.550;7.980;2023-03-01T05:49:12;31.07;;;12.67;;
18822;SDS011;9540;51.550;7.980;2023-03-01T05:51:40;25.20;;;13.10;;
18822;SDS011;9540;51.550;7.980;2023-03-01T05:54:07;25.70;;;11.97;;
18822;SDS011;9540;51.550;7.980;2023-03-01T05:56:35;32.63;;;13.30;;
18822;SDS011;9540;51.550;7.980;2023-03-01T05:59:03;25.73;;;12.23;;
18822;SDS011;9540;51.550;7.980;2023-03-01T06:01:34;26.67;;;12.40;;
18822;SDS011;9540;51.550;7.980;2023-03-01T06:04:02;28.17;;;13.00;;
18822;SDS011;9540;51.550;7.980;2023-03-01T06:06:33;29.83;;;13.97;;
18822;SDS011;9540;51.550;7.980;2023-03-01T06:09:02;33.43;;;13.57;;
18822;SDS011;9540;51.550;7.980;2023-03-01T06:11:29;33.27;;;14.20;;
18822;SDS011;9540;51.550;7.980;2023-03-01T06:13:57;34.67;;;14.57;;
18822;SDS011;9540;51.550;7.980;2023-03-01T06:16:25;33.77;;;14.93;;
18822;SDS011;9540;51.550;7.980;2023-03-01T06:18:53;39.47;;;14.30;;
18822;SDS011;9540;51.550;7.980;2023-03-01T06:21:21;31.77;;;14.60;;
18822;SDS011;9540;51.550;7.980;2023-03-01T06:23:48;31.87;;;14.10;;
18822;SDS011;9540;51.550;7.980;2023-03-01T06:26:16;27.93;;;13.83;;
18822;SDS011;9540;51.550;7.980;2023-03-01T06:28:44;33.60;;;15.07;;
18822;SDS011;9540;51.550;7.980;2023-03-01T06:31:11;39.83;;;15.43;;
18822;SDS011;9540;51.550;7.980;2023-03-01T06:33:39;33.53;;;14.80;;
18822;SDS011;9540;51.550;7.980;2023-03-01T06:36:08;36.37;;;15.00;;
18822;SDS011;9540;51.550;7.980;2023-03-01T06:38:35;35.87;;;16.10;;
18822;SDS011;9540;51.550;7.980;2023-03-01T06:41:03;34.43;;;15.73;;
18822;SDS011;9540;51.550;7.980;2023-03-01T06:43:30;32.70;;;15.43;;
18822;SDS011;9540;51.550;7.980;2023-03-01T06:45:57;42.30;;;17.30;;
18822;SDS011;9540;51.550;7.980;2023-03-01T06:48:24;38.90;;;18.17;;
18822;SDS011;9540;51.550;7.980;2023-03-01T06:50:51;43.07;;;18.10;;
18822;SDS011;9540;51.550;7.980;2023-03-01T06:53:20;32.27;;;16.30;;
18822;SDS011;9540;51.550;7.980;2023-03-01T06:55:47;44.90;;;17.07;;
18822;SDS011;9540;51.550;7.980;2023-03-01T06:58:19;38.77;;;17.80;;
18822;SDS011;9540;51.550;7.980;2023-03-01T07:00:46;39.83;;;18.33;;
18822;SDS011;9540;51.550;7.980;2023-03-01T07:03:14;40.97;;;19.27;;
18822;SDS011;9540;51.550;7.980;2023-03-01T07:05:41;37.47;;;17.93;;
18822;SDS011;9540;51.550;7.980;2023-03-01T07:08:09;37.37;;;16.40;;
18822;SDS011;9540;51.550;7.980;2023-03-01T07:10:38;29.97;;;16.63;;
18822;SDS011;9540;51.550;7.980;2023-03-01T07:13:05;28.63;;;14.90;;
18822;SDS011;9540;51.550;7.980;2023-03-01T07:15:33;25.27;;;14.03;;
18822;SDS011;9540;51.550;7.980;2023-03-01T07:18:00;22.97;;;13.93;;
18822;SDS011;9540;51.550;7.980;2023-03-01T07:20:28;21.57;;;12.70;;
18822;SDS011;9540;51.550;7.980;2023-03-01T07:22:55;23.73;;;12.77;;
18822;SDS011;9540;51.550;7.980;2023-03-01T07:25:26;21.77;;;11.87;;
18822;SDS011;9540;51.550;7.980;2023-03-01T07:27:54;28.47;;;14.07;;
18822;SDS011;9540;51.550;7.980;2023-03-01T07:30:22;28.40;;;12.53;;
18822;SDS011;9540;51.550;7.980;2023-03-01T07:32:52;29.83;;;13.77;;
18822;SDS011;9540;51.550;7.980;2023-03-01T07:35:20;25.70;;;13.73;;
18822;SDS011;9540;51.550;7.980;2023-03-01T07:37:47;25.40;;;14.07;;
18822;SDS011;9540;51.550;7.980;2023-03-01T07:40:15;24.33;;;13.43;;
18822;SDS011;9540;51.550;7.980;2023-03-01T07:42:42;23.70;;;12.97;;
18822;SDS011;9540;51.550;7.980;2023-03-01T07:45:10;26.37;;;13.57;;
18822;SDS011;9540;51.550;7.980;2023-03-01T07:47:38;22.77;;;12.70;;
18822;SDS011;9540;51.550;7.980;2023-03-01T07:50:06;25.03;;;12.40;;
18822;SDS011;9540;51.550;7.980;2023-03-01T07:52:34;20.40;;;12.50;;
18822;SDS011;9540;51.550;7.980;2023-03-01T07:55:01;18.93;;;12.33;;
18822;SDS011;9540;51.550;7.980;2023-03-01T07:57:28;21.17;;;12.47;;
18822;SDS011;9540;51.550;7.980;2023-03-01T07:59:56;20.53;;;12.20;;
18822;SDS011;9540;51.550;7.980;2023-03-01T08:02:25;20.20;;;12.17;;
18822;SDS011;9540;51.550;7.980;2023-03-01T08:04:52;22.93;;;12.27;;
18822;SDS011;9540;51.550;7.980;2023-03-01T08:07:19;21.80;;;12.67;;
18822;SDS011;9540;51.550;7.980;2023-03-01T08:09:46;19.77;;;11.50;;
18822;SDS011;9540;51.550;7.980;2023-03-01T08:12:14;18.83;;;10.67;;
18822;SDS011;9540;51.550;7.980;2023-03-01T08:14:42;14.17;;;10.00;;
18822;SDS011;9540;51.550;7.980;2023-03-01T08:17:09;15.93;;;10.37;;
18822;SDS011;9540;51.550;7.980;2023-03-01T08:19:37;21.10;;;11.80;;
18822;SDS011;9540;51.550;7.980;2023-03-01T08:22:04;18.67;;;10.97;;
18822;SDS011;9540;51.550;7.980;2023-03-01T08:24:32;15.73;;;9.83;;
18822;SDS011;9540;51.550;7.980;2023-03-01T08:26:59;16.07;;;9.93;;
18822;SDS011;9540;51.550;7.980;2023-03-01T08:29:27;16.87;;;10.33;;
18822;SDS011;9540;51.550;7.980;2023-03-01T08:31:59;16.07;;;10.40;;
18822;SDS011;9540;51.550;7.980;2023-03-01T08:34:26;13.47;;;9.43;;
18822;SDS011;9540;51.550;7.980;2023-03-01T08:36:55;13.43;;;9.53;;
18822;SDS011;9540;51.550;7.980;2023-03-01T08:39:22;19.10;;;9.77;;
18822;SDS011;9540;51.550;7.980;2023-03-01T08:41:49;13.53;;;9.70;;
18822;SDS011;9540;51.550;7.980;2023-03-01T08:44:16;13.50;;;8.90;;
18822;SDS011;9540;51.550;7.980;2023-03-01T08:46:44;17.63;;;9.80;;
18822;SDS011;9540;51.550;7.980;2023-03-01T08:49:12;14.27;;;9.52;;
18822;SDS011;9540;51.550;7.980;2023-03-01T08:51:41;13.63;;;9.45;;
18822;SDS011;9540;51.550;7.980;2023-03-01T08:54:11;16.77;;;10.02;;
18822;SDS011;9540;51.550;7.980;2023-03-01T08:56:41;14.02;;;9.48;;
18822;SDS011;9540;51.550;7.980;2023-03-01T08:59:08;11.63;;;8.32;;
18822;SDS011;9540;51.550;7.980;2023-03-01T09:01:36;9.90;;;7.60;;
18822;SDS011;9540;51.550;7.980;2023-03-01T09:04:04;15.15;;;8.55;;
18822;SDS011;9540;51.550;7.980;2023-03-01T09:06:31;9.65;;;7.38;;
18822;SDS011;9540;51.550;7.980;2023-03-01T09:08:59;12.48;;;7.90;;
18822;SDS011;9540;51.550;7.980;2023-03-01T09:11:29;10.80;;;8.35;;
18822;SDS011;9540;51.550;7.980;2023-03-01T09:13:56;11.95;;;7.93;;
18822;SDS011;9540;51.550;7.980;2023-03-01T09:16:23;12.60;;;7.85;;
18822;SDS011;9540;51.550;7.980;2023-03-01T09:18:54;12.10;;;7.70;;
18822;SDS011;9540;51.550;7.980;2023-03-01T09:21:22;12.75;;;8.27;;
18822;SDS011;9540;51.550;7.980;2023-03-01T09:23:50;12.80;;;7.35;;
18822;SDS011;9540;51.550;7.980;2023-03-01T09:26:20;12.65;;;7.70;;
18822;SDS011;9540;51.550;7.980;2023-03-01T09:28:49;14.13;;;7.60;;
18822;SDS011;9540;51.550;7.980;2023-03-01T09:31:20;9.90;;;7.90;;
18822;SDS011;9540;51.550;7.980;2023-03-01T09:33:48;11.80;;;6.85;;
18822;SDS011;9540;51.550;7.980;2023-03-01T09:36:18;20.05;;;7.97;;
18822;SDS011;9540;51.550;7.980;2023-03-01T09:38:47;11.00;;;7.63;;
18822;SDS011;9540;51.550;7.980;2023-03-01T09:41:18;12.35;;;7.75;;
18822;SDS011;9540;51.550;7.980;2023-03-01T09:44:01;13.13;;;7.95;;
18822;SDS011;9540;51.550;7.980;2023-03-01T09:46:37;9.85;;;6.63;;
18822;SDS011;9540;51.550;7.980;2023-03-01T09:49:09;9.13;;;6.78;;
18822;SDS011;9540;51.550;7.980;2023-03-01T09:51:42;11.23;;;7.03;;
18822;SDS011;9540;51.550;7.980;2023-03-01T09:54:14;10.98;;;6.55;;
18822;SDS011;9540;51.550;7.980;2023-03-01T09:56:44;10.13;;;6.95;;
18822;SDS011;9540;51.550;7.980;2023-03-01T09:59:23;12.13;;;7.30;;
18822;SDS011;9540;51.550;7.980;2023-03-01T10:01:55;8.77;;;7.05;;
18822;SDS011;9540;51.550;7.980;2023-03-01T10:04:28;9.38;;;6.57;;
18822;SDS011;9540;51.550;7.980;2023-03-01T10:07:17;8.70;;;6.80;;
18822;SDS011;9540;51.550;7.980;2023-03-01T10:09:52;11.80;;;6.78;;
18822;SDS011;9540;51.550;7.980;2023-03-01T10:12:20;15.95;;;7.57;;
18822;SDS011;9540;51.550;7.980;2023-03-01T10:14:54;12.82;;;7.05;;
18822;SDS011;9540;51.550;7.980;2023-03-01T10:17:29;11.25;;;7.05;;
18822;SDS011;9540;51.550;7.980;2023-03-01T10:20:09;8.95;;;6.65;;
18822;SDS011;9540;51.550;7.980;2023-03-01T10:22:45;10.82;;;6.85;;
18822;SDS011;9540;51.550;7.980;2023-03-01T10:25:15;12.80;;;6.72;;
18822;SDS011;9540;51.550;7.980;2023-03-01T10:27:51;10.60;;;7.07;;
18822;SDS011;9540;51.550;7.980;2023-03-01T10:30:22;11.15;;;6.78;;
18822;SDS011;9540;51.550;7.980;2023-03-01T10:32:58;12.13;;;6.95;;
18822;SDS011;9540;51.550;7.980;2023-03-01T10:35:31;10.70;;;7.07;;
18822;SDS011;9540;51.550;7.980;2023-03-01T10:38:05;11.00;;;6.78;;
18822;SDS011;9540;51.550;7.980;2023-03-01T10:40:34;11.13;;;7.15;;
18822;SDS011;9540;51.550;7.980;2023-03-01T10:43:03;11.75;;;6.75;;
18822;SDS011;9540;51.550;7.980;2023-03-01T10:45:33;12.18;;;7.20;;
18822;SDS011;9540;51.550;7.980;2023-03-01T10:48:06;11.52;;;7.00;;
18822;SDS011;9540;51.550;7.980;2023-03-01T10:50:39;9.88;;;6.32;;
18822;SDS011;9540;51.550;7.980;2023-03-01T10:53:10;10.25;;;6.70;;
18822;SDS011;9540;51.550;7.980;2023-03-01T10:55:49;11.73;;;6.97;;
18822;SDS011;9540;51.550;7.980;2023-03-01T10:58:24;12.00;;;6.87;;
18822;SDS011;9540;51.550;7.980;2023-03-01T11:00:53;13.33;;;7.13;;
18822;SDS011;9540;51.550;7.980;2023-03-01T11:03:23;12.77;;;7.03;;
18822;SDS011;9540;51.550;7.980;2023-03-01T11:05:55;12.70;;;7.30;;
18822;SDS011;9540;51.550;7.980;2023-03-01T11:08:34;10.17;;;6.60;;
18822;SDS011;9540;51.550;7.980;2023-03-01T11:11:14;13.83;;;7.00;;
18822;SDS011;9540;51.550;7.980;2023-03-01T11:13:57;13.47;;;7.40;;
18822;SDS011;9540;51.550;7.980;2023-03-01T11:16:28;13.13;;;7.03;;
18822;SDS011;9540;51.550;7.980;2023-03-01T11:19:04;13.37;;;7.57;;
18822;SDS011;9540;51.550;7.980;2023-03-01T11:21:44;11.60;;;6.93;;
18822;SDS011;9540;51.550;7.980;2023-03-01T11:24:17;15.77;;;8.03;;
18822;SDS011;9540;51.550;7.980;2023-03-01T11:26:47;10.83;;;7.00;;
18822;SDS011;9540;51.550;7.980;2023-03-01T11:29:23;11.97;;;7.67;;
18822;SDS011;9540;51.550;7.980;2023-03-01T11:31:59;14.10;;;7.20;;
18822;SDS011;9540;51.550;7.980;2023-03-01T11:34:35;12.87;;;8.23;;
18822;SDS011;9540;51.550;7.980;2023-03-01T11:37:09;14.10;;;7.50;;
18822;SDS011;9540;51.550;7.980;2023-03-01T11:39:43;12.57;;;6.67;;
18822;SDS011;9540;51.550;7.980;2023-03-01T11:42:18;14.60;;;7.53;;
18822;SDS011;9540;51.550;7.980;2023-03-01T11:44:48;13.57;;;7.97;;
18822;SDS011;9540;51.550;7.980;2023-03-01T11:50:17;10.05;;;7.13;;
18822;SDS011;9540;51.550;7.980;2023-03-01T11:52:55;19.35;;;8.10;;
18822;SDS011;9540;51.550;7.980;2023-03-01T11:55:40;12.75;;;7.35;;
18822;SDS011;9540;51.550;7.980;2023-03-01T11:58:33;13.70;;;7.35;;
18822;SDS011;9540;51.550;7.980;2023-03-01T12:01:30;11.17;;;7.47;;
18822;SDS011;9540;51.550;7.980;2023-03-01T12:04:22;15.50;;;7.75;;
18822;SDS011;9540;51.550;7.980;2023-03-01T12:07:09;13.93;;;7.50;;
18822;SDS011;9540;51.550;7.980;2023-03-01T12:09:57;13.13;;;8.07;;
18822;SDS011;9540;51.550;7.980;2023-03-01T12:12:45;11.52;;;7.20;;
18822;SDS011;9540;51.550;7.980;2023-03-01T12:15:42;11.68;;;6.53;;
18822;SDS011;9540;51.550;7.980;2023-03-01T12:18:42;12.32;;;8.25;;
18822;SDS011;9540;51.550;7.980;2023-03-01T12:21:39;9.48;;;6.45;;
18822;SDS011;9540;51.550;7.980;2023-03-01T12:24:33;10.85;;;6.78;;
18822;SDS011;9540;51.550;7.980;2023-03-01T12:27:21;10.32;;;6.30;;
18822;SDS011;9540;51.550;7.980;2023-03-01T12:30:04;13.38;;;8.15;;
18822;SDS011;9540;51.550;7.980;2023-03-01T12:32:44;12.38;;;7.30;;
18822;SDS011;9540;51.550;7.980;2023-03-01T12:35:26;15.80;;;5.93;;
18822;SDS011;9540;51.550;7.980;2023-03-01T12:38:10;9.13;;;6.15;;
18822;SDS011;9540;51.550;7.980;2023-03-01T12:41:01;9.35;;;5.80;;
18822;SDS011;9540;51.550;7.980;2023-03-01T12:43:51;8.40;;;5.78;;
18822;SDS011;9540;51.550;7.980;2023-03-01T12:46:30;13.10;;;6.10;;
18822;SDS011;9540;51.550;7.980;2023-03-01T12:49:08;12.32;;;6.28;;
18822;SDS011;9540;51.550;7.980;2023-03-01T12:51:39;9.00;;;5.85;;
18822;SDS011;9540;51.550;7.980;2023-03-01T12:54:14;9.98;;;6.30;;
18822;SDS011;9540;51.550;7.980;2023-03-01T12:56:42;8.73;;;5.88;;
18822;SDS011;9540;51.550;7.980;2023-03-01T12:59:17;9.13;;;5.50;;
18822;SDS011;9540;51.550;7.980;2023-03-01T13:01:49;11.43;;;6.45;;
18822;SDS011;9540;51.550;7.980;2023-03-01T13:07:13;9.27;;;6.05;;
18822;SDS011;9540;51.550;7.980;2023-03-01T13:09:54;7.53;;;5.72;;
18822;SDS011;9540;51.550;7.980;2023-03-01T13:15:28;13.75;;;7.50;;
18822;SDS011;9540;51.550;7.980;2023-03-01T13:18:02;11.27;;;6.32;;
18822;SDS011;9540;51.550;7.980;2023-03-01T13:20:51;10.07;;;5.82;;
18822;SDS011;9540;51.550;7.980;2023-03-01T13:23:26;9.93;;;5.88;;
18822;SDS011;9540;51.550;7.980;2023-03-01T13:26:04;8.75;;;5.53;;
18822;SDS011;9540;51.550;7.980;2023-03-01T13:28:38;7.95;;;5.80;;
18822;SDS011;9540;51.550;7.980;2023-03-01T13:31:07;8.68;;;5.75;;
18822;SDS011;9540;51.550;7.980;2023-03-01T13:33:56;12.77;;;5.80;;
18822;SDS011;9540;51.550;7.980;2023-03-01T13:39:27;9.57;;;5.63;;
18822;SDS011;9540;51.550;7.980;2023-03-01T13:41:57;10.77;;;6.37;;
18822;SDS011;9540;51.550;7.980;2023-03-01T13:44:26;8.67;;;5.57;;
18822;SDS011;9540;51.550;7.980;2023-03-01T13:46:58;8.57;;;6.10;;
18822;SDS011;9540;51.550;7.980;2023-03-01T13:49:31;11.93;;;6.45;;
18822;SDS011;9540;51.550;7.980;2023-03-01T13:52:27;14.87;;;6.20;;
18822;SDS011;9540;51.550;7.980;2023-03-01T13:55:01;10.20;;;6.50;;
18822;SDS011;9540;51.550;7.980;2023-03-01T13:57:32;13.60;;;6.60;;
18822;SDS011;9540;51.550;7.980;2023-03-01T14:00:01;12.50;;;5.73;;
18822;SDS011;9540;51.550;7.980;2023-03-01T14:02:29;11.37;;;6.37;;
18822;SDS011;9540;51.550;7.980;2023-03-01T14:04:58;10.20;;;6.27;;
18822;SDS011;9540;51.550;7.980;2023-03-01T14:07:26;7.43;;;5.47;;
18822;SDS011;9540;51.550;7.980;2023-03-01T14:09:56;10.33;;;5.90;;
18822;SDS011;9540;51.550;7.980;2023-03-01T14:12:28;8.53;;;5.73;;
18822;SDS011;9540;51.550;7.980;2023-03-01T14:15:06;11.40;;;5.90;;
18822;SDS011;9540;51.550;7.980;2023-03-01T14:17:42;7.88;;;5.50;;
18822;SDS011;9540;51.550;7.980;2023-03-01T14:20:26;9.48;;;6.05;;
18822;SDS011;9540;51.550;7.980;2023-03-01T14:22:57;8.50;;;5.82;;
18822;SDS011;9540;51.550;7.980;2023-03-01T14:25:26;8.65;;;5.97;;
18822;SDS011;9540;51.550;7.980;2023-03-01T14:28:00;8.43;;;5.88;;
18822;SDS011;9540;51.550;7.980;2023-03-01T14:30:31;7.60;;;5.93;;
18822;SDS011;9540;51.550;7.980;2023-03-01T14:33:03;10.88;;;5.35;;
18822;SDS011;9540;51.550;7.980;2023-03-01T14:35:34;7.10;;;5.47;;
18822;SDS011;9540;51.550;7.980;2023-03-01T14:38:02;6.30;;;4.50;;
18822;SDS011;9540;51.550;7.980;2023-03-01T14:40:30;9.95;;;5.45;;
18822;SDS011;9540;51.550;7.980;2023-03-01T14:42:58;8.35;;;4.97;;
18822;SDS011;9540;51.550;7.980;2023-03-01T14:45:27;7.40;;;5.03;;
18822;SDS011;9540;51.550;7.980;2023-03-01T14:47:58;9.45;;;5.03;;
18822;SDS011;9540;51.550;7.980;2023-03-01T14:50:28;8.35;;;5.25;;
18822;SDS011;9540;51.550;7.980;2023-03-01T14:52:58;6.63;;;4.93;;
18822;SDS011;9540;51.550;7.980;2023-03-01T14:55:29;8.68;;;4.80;;
18822;SDS011;9540;51.550;7.980;2023-03-01T14:57:58;9.90;;;5.20;;
18822;SDS011;9540;51.550;7.980;2023-03-01T15:00:26;10.07;;;5.63;;
18822;SDS011;9540;51.550;7.980;2023-03-01T15:02:55;7.63;;;5.85;;
18822;SDS011;9540;51.550;7.980;2023-03-01T15:05:29;9.48;;;5.60;;
18822;SDS011;9540;51.550;7.980;2023-03-01T15:07:59;9.90;;;5.80;;
18822;SDS011;9540;51.550;7.980;2023-03-01T15:10:29;6.55;;;5.00;;
18822;SDS011;9540;51.550;7.980;2023-03-01T15:13:09;7.80;;;5.43;;
18822;SDS011;9540;51.550;7.980;2023-03-01T15:15:38;8.77;;;5.63;;
18822;SDS011;9540;51.550;7.980;2023-03-01T15:18:14;9.65;;;5.20;;
18822;SDS011;9540;51.550;7.980;2023-03-01T15:20:44;6.80;;;5.03;;